createdAt,value
2023-11-01T00:01:01.393Z,98406.06
2023-11-01T00:05:03.181Z,98405.72
2023-11-01T00:09:04.819Z,98406.16
2023-11-01T00:13:07.755Z,98401.25
2023-11-01T00:17:09.351Z,98405.56
2023-11-01T00:21:10.952Z,98403.63
2023-11-01T00:25:12.564Z,98413.81
2023-11-01T00:29:15.756Z,98420.38
2023-11-01T00:33:17.482Z,98413.34
2023-11-01T00:37:19.325Z,98410.59
2023-11-01T00:41:20.986Z,98415.50
2023-11-01T00:45:23.975Z,98415.06
2023-11-01T00:49:25.549Z,98412.38
2023-11-01T00:53:28.210Z,98426.38
2023-11-01T00:57:29.843Z,98422.06
2023-11-01T01:01:32.806Z,98432.50
2023-11-01T01:05:34.486Z,98428.97
2023-11-01T01:09:36.111Z,98430.69
2023-11-01T01:13:37.686Z,98433.41
2023-11-01T01:17:40.744Z,98424.72
2023-11-01T01:21:43.516Z,98429.69
2023-11-01T01:25:45.111Z,98432.38
2023-11-01T01:29:46.707Z,98418.75
2023-11-01T01:33:49.723Z,98419.81
2023-11-01T01:37:51.368Z,98419.22
2023-11-01T01:41:53.036Z,98403.91
2023-11-01T01:46:03.664Z,98412.69
2023-11-01T01:50:08.065Z,98417.03
2023-11-01T01:54:09.820Z,98399.81
2023-11-01T01:58:11.858Z,98404.78
2023-11-01T02:02:14.294Z,98399.00
2023-11-01T02:06:17.263Z,98407.16
2023-11-01T02:10:18.842Z,98392.13
2023-11-01T02:14:20.481Z,98403.34
2023-11-01T02:18:22.112Z,98415.97
2023-11-01T02:22:24.986Z,98402.81
2023-11-01T02:26:27.943Z,98404.47
2023-11-01T02:30:29.580Z,98405.56
2023-11-01T02:34:31.162Z,98400.41
2023-11-01T02:38:32.888Z,98401.75
2023-11-01T02:42:36.132Z,98399.56
2023-11-01T02:46:37.695Z,98401.78
2023-11-01T02:50:39.419Z,98400.13
2023-11-01T02:54:41.006Z,98396.84
2023-11-01T02:58:43.907Z,98389.75
2023-11-01T03:02:45.664Z,98397.69
2023-11-01T03:06:47.222Z,98393.88
2023-11-01T03:10:48.778Z,98409.19
2023-11-01T03:14:51.857Z,98411.88
2023-11-01T03:18:53.506Z,98413.22
2023-11-01T03:22:55.061Z,98402.81
2023-11-01T03:26:56.751Z,98409.94
2023-11-01T03:30:59.683Z,98412.16
2023-11-01T03:35:01.263Z,98422.06
2023-11-01T03:39:03.052Z,98425.31
2023-11-01T03:43:04.622Z,98412.22
2023-11-01T03:47:07.787Z,98414.97
2023-11-01T03:51:09.340Z,98406.72
2023-11-01T03:55:10.914Z,98417.63
2023-11-01T03:59:12.572Z,98420.13
2023-11-01T04:03:15.659Z,98416.25
2023-11-01T04:07:17.851Z,98425.84
2023-11-01T04:11:19.593Z,98419.84
2023-11-01T04:15:21.193Z,98411.91
2023-11-01T04:19:24.389Z,98407.25
2023-11-01T04:23:26.031Z,98407.78
2023-11-01T04:27:27.651Z,98412.94
2023-11-01T04:31:29.239Z,98414.78
2023-11-01T04:35:32.195Z,98418.03
2023-11-01T04:39:33.759Z,98413.06
2023-11-01T04:43:35.410Z,98414.72
2023-11-01T04:47:37.606Z,98403.28
2023-11-01T04:51:41.005Z,98415.41
2023-11-01T04:55:43.835Z,98404.47
2023-11-01T04:59:46.478Z,98408.59
2023-11-01T05:03:48.063Z,98398.47
2023-11-01T05:07:51.052Z,98406.16
2023-11-01T05:11:52.883Z,98408.38
2023-11-01T05:15:54.695Z,98402.91
2023-11-01T05:19:56.256Z,98404.03
2023-11-01T05:23:59.149Z,98402.66
2023-11-01T05:28:00.774Z,98405.63
2023-11-01T05:32:02.315Z,98399.06
2023-11-01T05:36:04.915Z,98402.34
2023-11-01T05:40:09.387Z,98415.50
2023-11-01T05:44:10.953Z,98407.00
2023-11-01T05:48:12.556Z,98409.47
2023-11-01T05:52:14.156Z,98409.47
2023-11-01T05:56:17.152Z,98415.50
2023-11-01T06:00:19.766Z,98414.97
2023-11-01T06:04:21.436Z,98411.44
2023-11-01T06:08:23.041Z,98413.38
2023-11-01T06:12:25.946Z,98420.72
2023-11-01T06:16:27.583Z,98425.38
2023-11-01T06:20:29.207Z,98432.47
2023-11-01T06:24:32.208Z,98434.94
2023-11-01T06:28:35.130Z,98422.59
2023-11-01T06:32:36.810Z,98429.16
2023-11-01T06:36:38.462Z,98428.06
2023-11-01T06:40:40.020Z,98428.06
2023-11-01T06:44:42.921Z,98420.06
2023-11-01T06:48:45.209Z,98430.69
2023-11-01T06:52:46.922Z,98426.88
2023-11-01T06:56:48.560Z,98430.69
2023-11-01T07:00:51.502Z,98444.38
2023-11-01T07:04:53.164Z,98437.28
2023-11-01T07:08:54.987Z,98431.28
2023-11-01T07:12:57.347Z,98436.81
2023-11-01T07:17:01.207Z,98442.28
2023-11-01T07:21:03.014Z,98445.56
2023-11-01T07:25:05.781Z,98439.50
2023-11-01T07:29:08.172Z,98441.69
2023-11-01T07:33:11.418Z,98445.28
2023-11-01T07:37:13.016Z,98438.47
2023-11-01T07:41:16.729Z,98441.28
2023-11-01T07:45:18.329Z,98436.94
2023-11-01T07:49:21.327Z,98428.19
2023-11-01T07:53:22.930Z,98431.44
2023-11-01T07:57:25.013Z,98429.78
2023-11-01T08:01:26.613Z,98418.25
2023-11-01T08:05:29.716Z,98424.22
2023-11-01T08:09:31.348Z,98414.91
2023-11-01T08:13:32.915Z,98419.28
2023-11-01T08:17:34.615Z,98414.56
2023-11-01T08:21:37.557Z,98415.41
2023-11-01T08:25:39.149Z,98420.63
2023-11-01T08:29:40.765Z,98419.75
2023-11-01T08:33:42.436Z,98424.13
2023-11-01T08:37:45.637Z,98410.91
2023-11-01T08:41:47.285Z,98419.16
2023-11-01T08:45:48.955Z,98415.81
2023-11-01T08:49:51.035Z,98412.25
2023-11-01T08:53:54.813Z,98411.38
2023-11-01T08:57:56.492Z,98411.31
2023-11-01T09:02:07.426Z,98406.59
2023-11-01T09:06:14.987Z,98405.63
2023-11-01T09:10:18.560Z,98401.16
2023-11-01T09:14:20.291Z,98399.94
2023-11-01T09:18:21.986Z,98403.16
2023-11-01T09:22:24.338Z,98397.25
2023-11-01T09:26:27.373Z,98396.16
2023-11-01T09:30:28.939Z,98388.19
2023-11-01T09:34:30.537Z,98388.41
2023-11-01T09:38:32.144Z,98395.59
2023-11-01T09:42:35.477Z,98390.53
2023-11-01T09:46:37.256Z,98388.72
2023-11-01T09:50:40.962Z,98382.66
2023-11-01T09:54:42.535Z,98385.41
2023-11-01T09:58:45.937Z,98383.63
2023-11-01T10:02:47.998Z,98384.56
2023-11-01T10:06:49.605Z,98372.25
2023-11-01T10:10:51.493Z,98381.00
2023-11-01T10:14:55.130Z,98370.44
2023-11-01T10:18:56.812Z,98374.84
2023-11-01T10:22:58.987Z,98374.22
2023-11-01T10:27:00.684Z,98357.34
2023-11-01T10:31:04.587Z,98355.81
2023-11-01T10:35:12.725Z,98357.19
2023-11-01T10:39:14.491Z,98355.00
2023-11-01T10:43:16.658Z,98349.38
2023-11-01T10:47:19.886Z,98344.84
2023-11-01T10:51:21.886Z,98341.44
2023-11-01T10:55:23.496Z,98327.00
2023-11-01T10:59:31.438Z,98330.56
2023-11-01T11:03:43.067Z,98325.34
2023-11-01T11:07:48.250Z,98320.13
2023-11-01T11:12:04.710Z,98312.56
2023-11-01T11:16:06.590Z,98305.44
2023-11-01T11:20:13.940Z,98298.56
2023-11-01T11:24:46.951Z,98296.22
2023-11-01T11:28:48.521Z,98300.72
2023-11-01T11:33:06.638Z,98292.25
2023-11-01T11:37:09.950Z,98288.16
2023-11-01T11:41:13.010Z,98284.69
2023-11-01T11:45:25.323Z,98277.75
2023-11-01T11:49:28.958Z,98278.66
2023-11-01T11:53:35.704Z,98280.59
2023-11-01T11:57:37.569Z,98272.41
2023-11-01T12:01:39.625Z,98260.66
2023-11-01T12:05:41.253Z,98263.66
2023-11-01T12:09:49.403Z,98249.63
2023-11-01T12:13:51.014Z,98239.72
2023-11-01T12:17:52.622Z,98237.88
2023-11-01T12:21:55.808Z,98243.38
2023-11-01T12:26:08.410Z,98229.91
2023-11-01T12:30:21.251Z,98221.94
2023-11-01T12:34:22.893Z,98223.88
2023-11-01T12:38:24.484Z,98227.72
2023-11-01T12:42:28.777Z,98225.72
2023-11-01T12:46:30.439Z,98218.22
2023-11-01T12:50:33.610Z,98227.88
2023-11-01T12:54:35.602Z,98216.84
2023-11-01T12:58:39.633Z,98216.03
2023-11-01T13:02:41.871Z,98215.75
2023-11-01T13:06:43.589Z,98212.91
2023-11-01T13:10:45.158Z,98209.22
2023-11-01T13:14:48.077Z,98205.38
2023-11-01T13:18:49.737Z,98203.69
2023-11-01T13:22:53.361Z,98206.63
2023-11-01T13:26:56.089Z,98204.00
2023-11-01T13:30:59.147Z,98197.28
2023-11-01T13:35:00.962Z,98190.94
2023-11-01T13:39:02.754Z,98197.59
2023-11-01T13:43:04.333Z,98191.75
2023-11-01T13:47:07.340Z,98190.53
2023-11-01T13:51:09.163Z,98193.59
2023-11-01T13:55:10.778Z,98190.75
2023-11-01T13:59:12.381Z,98191.56
2023-11-01T14:03:15.503Z,98193.78
2023-11-01T14:07:17.239Z,98178.03
2023-11-01T14:11:18.927Z,98173.81
2023-11-01T14:15:20.538Z,98183.72
2023-11-01T14:19:23.435Z,98172.47
2023-11-01T14:23:24.972Z,98166.34
2023-11-01T14:27:26.512Z,98170.16
2023-11-01T14:31:28.133Z,98164.53
2023-11-01T14:35:31.046Z,98169.97
2023-11-01T14:39:32.605Z,98164.41
2023-11-01T14:43:34.171Z,98159.59
2023-11-01T14:47:36.029Z,98154.16
2023-11-01T14:51:41.675Z,98143.81
2023-11-01T14:55:43.267Z,98154.09
2023-11-01T14:59:45.376Z,98155.19
2023-11-01T15:03:47.179Z,98149.41
2023-11-01T15:07:50.249Z,98144.78
2023-11-01T15:11:52.050Z,98136.25
2023-11-01T15:15:53.694Z,98129.38
2023-11-01T15:19:55.265Z,98122.72
2023-11-01T15:23:58.461Z,98127.13
2023-11-01T15:28:00.095Z,98118.56
2023-11-01T15:32:01.673Z,98118.59
2023-11-01T15:36:04.816Z,98118.03
2023-11-01T15:40:09.313Z,98109.28
2023-11-01T15:44:11.146Z,98118.13
2023-11-01T15:48:13.143Z,98118.97
2023-11-01T15:52:14.798Z,98109.97
2023-11-01T15:56:17.727Z,98105.50
2023-11-01T16:00:19.353Z,98102.50
2023-11-01T16:04:21.160Z,98099.50
2023-11-01T16:08:23.613Z,98098.16
2023-11-01T16:12:26.554Z,98097.91
2023-11-01T16:16:28.138Z,98096.91
2023-11-01T16:20:29.995Z,98091.00
2023-11-01T16:24:31.653Z,98094.31
2023-11-01T16:28:34.570Z,98097.09
2023-11-01T16:32:36.155Z,98091.41
2023-11-01T16:36:37.732Z,98087.84
2023-11-01T16:40:39.351Z,98098.13
2023-11-01T16:44:42.487Z,98099.75
2023-11-01T16:48:44.411Z,98099.16
2023-11-01T16:52:46.023Z,98101.38
2023-11-01T16:56:47.839Z,98100.31
2023-11-01T17:00:50.771Z,98095.41
2023-11-01T17:04:52.311Z,98091.56
2023-11-01T17:08:54.074Z,98105.31
2023-11-01T17:12:55.661Z,98101.22
2023-11-01T17:16:59.132Z,98104.28
2023-11-01T17:21:00.709Z,98106.97
2023-11-01T17:25:02.322Z,98105.91
2023-11-01T17:29:04.180Z,98090.66
2023-11-01T17:33:07.143Z,98091.34
2023-11-01T17:37:08.746Z,98087.09
2023-11-01T17:41:48.478Z,98085.03
2023-11-01T17:45:50.081Z,98087.06
2023-11-01T17:49:59.626Z,98076.44
2023-11-01T17:54:01.422Z,98081.31
2023-11-01T17:58:03.077Z,98073.66
2023-11-01T18:02:30.548Z,98067.63
2023-11-01T18:06:33.596Z,98067.91
2023-11-01T18:10:40.304Z,98062.34
2023-11-01T18:14:42.890Z,98067.72
2023-11-01T18:18:45.652Z,98059.19
2023-11-01T18:22:48.594Z,98049.41
2023-11-01T18:26:50.184Z,98050.56
2023-11-01T18:30:52.471Z,98041.03
2023-11-01T18:34:54.110Z,98038.06
2023-11-01T18:38:58.962Z,98039.78
2023-11-01T18:43:00.784Z,98033.72
2023-11-01T18:47:05.185Z,98039.84
2023-11-01T18:51:14.197Z,98039.84
2023-11-01T18:55:29.212Z,98039.34
2023-11-01T18:59:31.485Z,98033.91
2023-11-01T19:03:33.231Z,98040.47
2023-11-01T19:07:38.375Z,98043.50
2023-11-01T19:11:41.353Z,98050.75
2023-11-01T19:16:10.757Z,98051.28
2023-11-01T19:20:12.321Z,98046.91
2023-11-01T19:24:13.890Z,98036.94
2023-11-01T19:28:17.729Z,98038.00
2023-11-01T19:32:19.451Z,98039.63
2023-11-01T19:36:21.254Z,98032.84
2023-11-01T19:40:23.051Z,98036.97
2023-11-01T19:44:26.145Z,98033.72
2023-11-01T19:48:27.957Z,98027.75
2023-11-01T19:52:29.592Z,98020.63
2023-11-01T19:56:31.346Z,98008.56
2023-11-01T20:00:34.363Z,98016.25
2023-11-01T20:04:36.947Z,98020.09
2023-11-01T20:08:38.533Z,98020.56
2023-11-01T20:12:40.239Z,98024.34
2023-11-01T20:16:43.179Z,98024.38
2023-11-01T20:20:44.771Z,98030.16
2023-11-01T20:24:46.327Z,98026.69
2023-11-01T20:28:48.204Z,98011.97
2023-11-01T20:32:51.556Z,98009.84
2023-11-01T20:36:53.169Z,98008.75
2023-11-01T20:40:54.805Z,98006.53
2023-11-01T20:44:56.365Z,97997.69
2023-11-01T20:48:59.395Z,97998.31
2023-11-01T20:53:00.947Z,97996.66
2023-11-01T20:57:02.584Z,97996.09
2023-11-01T21:01:04.559Z,97991.78
2023-11-01T21:05:08.322Z,97993.97
2023-11-01T21:09:10.055Z,97992.03
2023-11-01T21:13:11.664Z,97991.72
2023-11-01T21:17:13.311Z,97975.81
2023-11-01T21:21:16.635Z,97964.88
2023-11-01T21:25:18.266Z,97962.09
2023-11-01T21:29:20.204Z,97953.59
2023-11-01T21:33:22.068Z,97954.94
2023-11-01T21:37:25.915Z,97923.19
2023-11-01T21:41:27.571Z,97923.53
2023-11-01T21:45:47.186Z,97912.31
2023-11-01T21:49:48.819Z,97912.97
2023-11-01T21:53:51.743Z,97909.81
2023-11-01T21:57:54.215Z,97913.63
2023-11-01T22:01:55.857Z,97915.19
2023-11-01T22:05:57.599Z,97916.59
2023-11-01T22:10:10.549Z,97908.06
2023-11-01T22:14:26.910Z,97906.44
2023-11-01T22:18:28.501Z,97904.19
2023-11-01T22:22:49.928Z,97913.03
2023-11-01T22:26:53.342Z,97921.63
2023-11-01T22:30:55.019Z,97925.81
2023-11-01T22:34:56.661Z,97930.22
2023-11-01T22:38:59.720Z,97923.19
2023-11-01T22:43:02.709Z,97924.91
2023-11-01T22:47:04.738Z,97912.16
2023-11-01T22:51:07.137Z,97904.28
2023-11-01T22:55:09.155Z,97897.66
2023-11-01T22:59:12.065Z,97883.44
2023-11-01T23:03:13.814Z,97889.72
2023-11-01T23:07:15.445Z,97877.94
2023-11-01T23:11:17.012Z,97874.66
2023-11-01T23:15:20.092Z,97863.47
2023-11-01T23:19:21.697Z,97861.78
2023-11-01T23:23:23.332Z,97848.41
2023-11-01T23:27:25.119Z,97836.38
2023-11-01T23:31:28.482Z,97845.13
2023-11-01T23:35:30.605Z,97839.13
2023-11-01T23:39:38.006Z,97824.94
2023-11-01T23:43:39.562Z,97818.34
2023-11-01T23:47:51.275Z,97826.78
2023-11-01T23:51:57.522Z,97818.25
2023-11-01T23:55:59.070Z,97792.44
